createdAt,value
2023-05-20T00:00:57.254Z,10.50
2023-05-20T00:03:25.531Z,8.40
2023-05-20T00:05:53.067Z,7.32
2023-05-20T00:08:20.987Z,8.90
2023-05-20T00:10:48.812Z,10.35
2023-05-20T00:13:16.281Z,9.43
2023-05-20T00:15:43.889Z,8.68
2023-05-20T00:18:11.483Z,8.98
2023-05-20T00:20:40.096Z,7.78
2023-05-20T00:23:07.371Z,8.15
2023-05-20T00:25:35.185Z,9.07
2023-05-20T00:28:03.012Z,7.70
2023-05-20T00:30:30.295Z,8.57
2023-05-20T00:32:57.566Z,11.13
2023-05-20T00:35:24.871Z,9.05
2023-05-20T00:37:52.187Z,9.88
2023-05-20T00:40:20.979Z,10.05
2023-05-20T00:42:48.203Z,10.75
2023-05-20T00:45:15.703Z,8.75
2023-05-20T00:47:43.842Z,10.20
2023-05-20T00:50:11.761Z,9.48
2023-05-20T00:52:44.006Z,10.43
2023-05-20T00:55:12.620Z,9.63
2023-05-20T00:57:40.394Z,10.10
2023-05-20T01:00:10.763Z,10.80
2023-05-20T01:02:38.963Z,9.18
2023-05-20T01:05:07.921Z,9.85
2023-05-20T01:07:35.805Z,8.90
2023-05-20T01:10:04.184Z,10.80
2023-05-20T01:12:46.643Z,10.95
2023-05-20T01:15:16.676Z,11.40
2023-05-20T01:17:52.982Z,9.48
2023-05-20T01:20:22.224Z,9.93
2023-05-20T01:22:57.618Z,9.90
2023-05-20T01:25:26.486Z,10.07
2023-05-20T01:28:00.681Z,9.80
2023-05-20T01:30:37.621Z,10.30
2023-05-20T01:33:13.472Z,8.20
2023-05-20T01:35:42.672Z,8.93
2023-05-20T01:38:10.188Z,8.18
2023-05-20T01:40:38.800Z,10.35
2023-05-20T01:43:07.313Z,8.93
2023-05-20T01:45:37.026Z,9.27
2023-05-20T01:48:05.202Z,10.57
2023-05-20T01:50:32.602Z,9.75
2023-05-20T01:53:01.223Z,9.90
2023-05-20T01:55:28.655Z,7.95
2023-05-20T01:57:56.011Z,10.18
2023-05-20T02:00:23.456Z,8.93
2023-05-20T02:02:50.954Z,7.75
2023-05-20T02:05:18.794Z,10.18
2023-05-20T02:07:46.441Z,7.70
2023-05-20T02:10:14.528Z,7.80
2023-05-20T02:12:43.013Z,8.13
2023-05-20T02:15:11.101Z,7.43
2023-05-20T02:17:39.823Z,8.38
2023-05-20T02:20:08.668Z,9.63
2023-05-20T02:22:36.911Z,7.03
2023-05-20T02:25:05.562Z,7.95
2023-05-20T02:27:32.916Z,9.88
2023-05-20T02:30:01.590Z,9.65
2023-05-20T02:32:29.526Z,7.90
2023-05-20T02:34:57.065Z,11.27
2023-05-20T02:37:24.392Z,7.43
2023-05-20T02:39:51.613Z,7.78
2023-05-20T02:42:19.559Z,8.52
2023-05-20T02:44:46.953Z,9.05
2023-05-20T02:47:14.700Z,7.40
2023-05-20T02:49:42.210Z,9.52
2023-05-20T02:52:10.624Z,8.98
2023-05-20T02:54:38.202Z,8.85
2023-05-20T02:57:05.723Z,7.80
2023-05-20T02:59:33.039Z,7.05
2023-05-20T03:02:00.812Z,8.80
2023-05-20T03:04:28.976Z,9.00
2023-05-20T03:06:57.916Z,9.50
2023-05-20T03:09:25.838Z,7.35
2023-05-20T03:11:53.694Z,8.20
2023-05-20T03:14:21.503Z,6.53
2023-05-20T03:16:49.092Z,9.10
2023-05-20T03:19:17.002Z,10.63
2023-05-20T03:21:44.493Z,8.57
2023-05-20T03:24:12.035Z,11.07
2023-05-20T03:26:43.301Z,7.65
2023-05-20T03:29:10.982Z,8.43
2023-05-20T03:31:38.527Z,8.65
2023-05-20T03:34:05.873Z,9.13
2023-05-20T03:36:33.318Z,6.38
2023-05-20T03:39:01.922Z,8.13
2023-05-20T03:41:31.092Z,8.88
2023-05-20T03:43:58.467Z,8.00
2023-05-20T03:46:27.305Z,9.77
2023-05-20T03:48:54.643Z,7.57
2023-05-20T03:51:22.937Z,6.53
2023-05-20T03:53:51.590Z,10.73
2023-05-20T03:56:19.107Z,7.15
2023-05-20T03:58:46.435Z,8.88
2023-05-20T04:01:14.395Z,8.50
2023-05-20T04:03:42.909Z,7.93
2023-05-20T04:06:10.296Z,7.60
2023-05-20T04:08:37.883Z,5.68
2023-05-20T04:11:06.221Z,7.90
2023-05-20T04:13:34.469Z,6.80
2023-05-20T04:16:03.031Z,6.70
2023-05-20T04:18:31.867Z,8.23
2023-05-20T04:21:24.885Z,6.45
2023-05-20T04:23:52.236Z,6.85
2023-05-20T04:26:20.708Z,6.50
2023-05-20T04:28:51.049Z,7.97
2023-05-20T04:31:18.706Z,8.20
2023-05-20T04:33:46.596Z,10.60
2023-05-20T04:36:16.202Z,7.80
2023-05-20T04:38:44.748Z,9.10
2023-05-20T04:41:12.136Z,6.15
2023-05-20T04:43:40.469Z,7.75
2023-05-20T04:46:08.847Z,6.57
2023-05-20T04:48:36.596Z,9.80
2023-05-20T04:51:04.709Z,7.80
2023-05-20T04:53:33.943Z,7.93
2023-05-20T04:56:01.919Z,7.40
2023-05-20T04:58:31.692Z,9.98
2023-05-20T05:00:59.972Z,5.80
2023-05-20T05:03:27.663Z,5.75
2023-05-20T05:05:59.271Z,7.03
2023-05-20T05:08:27.070Z,8.00
2023-05-20T05:10:55.260Z,5.85
2023-05-20T05:13:22.852Z,6.22
2023-05-20T05:16:03.250Z,8.60
2023-05-20T05:18:32.475Z,5.90
2023-05-20T05:21:05.247Z,6.28
2023-05-20T05:23:34.650Z,6.50
2023-05-20T05:26:02.056Z,7.60
2023-05-20T05:28:29.320Z,7.32
2023-05-20T05:30:57.252Z,7.25
2023-05-20T05:33:24.740Z,7.50
2023-05-20T05:35:52.700Z,9.05
2023-05-20T05:38:20.240Z,5.95
2023-05-20T05:40:47.662Z,8.68
2023-05-20T05:43:16.219Z,6.35
2023-05-20T05:45:46.433Z,6.13
2023-05-20T05:48:13.859Z,5.43
2023-05-20T05:50:46.442Z,6.18
2023-05-20T05:53:15.466Z,6.55
2023-05-20T05:55:47.457Z,6.00
2023-05-20T05:58:15.524Z,7.40
2023-05-20T06:00:42.779Z,5.65
2023-05-20T06:03:14.978Z,6.28
2023-05-20T06:05:47.302Z,4.53
2023-05-20T06:08:14.707Z,6.85
2023-05-20T06:10:42.195Z,6.32
2023-05-20T06:13:09.373Z,5.85
2023-05-20T06:15:37.005Z,6.85
2023-05-20T06:18:04.526Z,5.38
2023-05-20T06:20:32.876Z,5.00
2023-05-20T06:23:00.291Z,6.82
2023-05-20T06:25:42.068Z,4.95
2023-05-20T06:28:09.322Z,4.90
2023-05-20T06:30:36.631Z,6.40
2023-05-20T06:33:04.204Z,4.75
2023-05-20T06:35:31.418Z,6.03
2023-05-20T06:37:58.776Z,5.18
2023-05-20T06:40:27.376Z,5.45
2023-05-20T06:42:55.170Z,5.30
2023-05-20T06:45:43.626Z,7.07
2023-05-20T06:48:34.400Z,4.80
2023-05-20T06:51:09.582Z,8.32
2023-05-20T06:53:37.464Z,5.53
2023-05-20T06:56:05.248Z,5.35
2023-05-20T06:58:33.402Z,5.65
2023-05-20T07:01:00.642Z,5.97
2023-05-20T07:03:28.451Z,5.95
2023-05-20T07:05:55.964Z,5.20
2023-05-20T07:08:24.327Z,8.02
2023-05-20T07:10:52.340Z,6.30
2023-05-20T07:13:24.060Z,6.30
2023-05-20T07:15:52.596Z,5.65
2023-05-20T07:18:21.535Z,6.32
2023-05-20T07:20:53.541Z,5.53
2023-05-20T07:23:33.804Z,6.35
2023-05-20T07:26:01.431Z,5.90
2023-05-20T07:28:30.828Z,5.85
2023-05-20T07:31:00.197Z,7.32
2023-05-20T07:33:30.965Z,7.57
2023-05-20T07:35:59.385Z,6.40
2023-05-20T07:38:26.981Z,5.53
2023-05-20T07:41:01.040Z,6.20
2023-05-20T07:43:29.096Z,7.57
2023-05-20T07:45:57.333Z,5.93
2023-05-20T07:48:29.037Z,5.88
2023-05-20T07:51:03.972Z,5.78
2023-05-20T07:53:33.640Z,5.43
2023-05-20T07:56:01.201Z,6.30
2023-05-20T07:58:31.786Z,6.28
2023-05-20T08:01:00.398Z,6.43
2023-05-20T08:03:28.740Z,5.63
2023-05-20T08:06:03.802Z,6.28
2023-05-20T08:08:31.342Z,6.78
2023-05-20T08:11:06.302Z,7.82
2023-05-20T08:13:34.131Z,5.68
2023-05-20T08:17:18.039Z,7.57
2023-05-20T08:19:46.241Z,6.68
2023-05-20T08:23:33.355Z,6.72
2023-05-20T08:26:04.201Z,6.15
2023-05-20T08:28:34.390Z,6.72
2023-05-20T08:31:02.650Z,4.90
2023-05-20T08:33:31.355Z,6.97
2023-05-20T08:35:59.209Z,6.32
2023-05-20T08:38:26.600Z,8.23
2023-05-20T08:40:58.051Z,5.55
2023-05-20T08:44:41.252Z,5.65
2023-05-20T08:48:24.668Z,5.40
2023-05-20T08:50:53.693Z,5.13
2023-05-20T08:54:37.737Z,5.72
2023-05-20T08:57:05.971Z,5.85
2023-05-20T09:00:48.077Z,5.63
2023-05-20T09:04:31.641Z,5.93
2023-05-20T09:08:14.579Z,6.10
2023-05-20T09:10:43.094Z,6.07
2023-05-20T09:14:29.294Z,5.90
2023-05-20T09:16:57.366Z,4.72
2023-05-20T09:19:26.489Z,4.75
2023-05-20T09:21:56.307Z,6.40
2023-05-20T09:24:27.006Z,6.07
2023-05-20T09:26:55.285Z,6.10
2023-05-20T09:29:23.503Z,5.65
2023-05-20T09:31:51.884Z,6.30
2023-05-20T09:34:22.055Z,5.82
2023-05-20T09:36:51.172Z,5.75
2023-05-20T09:39:34.359Z,8.25
2023-05-20T09:42:12.698Z,6.75
2023-05-20T09:44:42.713Z,5.90
2023-05-20T09:47:10.497Z,6.10
2023-05-20T09:49:39.649Z,6.30
2023-05-20T09:52:07.712Z,5.38
2023-05-20T09:54:36.912Z,5.70
2023-05-20T09:57:07.442Z,6.15
2023-05-20T09:59:37.917Z,6.63
2023-05-20T10:02:07.426Z,5.00
2023-05-20T10:04:43.284Z,8.13
2023-05-20T10:07:55.570Z,5.57
2023-05-20T10:11:05.878Z,6.53
2023-05-20T10:13:57.725Z,4.28
2023-05-20T10:17:40.999Z,6.43
2023-05-20T10:21:27.004Z,5.32
2023-05-20T10:23:55.327Z,5.47
2023-05-20T10:27:38.203Z,7.20
2023-05-20T10:31:21.502Z,5.60
2023-05-20T10:35:05.088Z,4.88
2023-05-20T10:38:48.193Z,5.18
2023-05-20T10:41:28.846Z,4.18
2023-05-20T10:44:06.859Z,5.20
2023-05-20T10:47:49.724Z,7.20
2023-05-20T10:51:32.430Z,5.65
2023-05-20T10:55:14.969Z,4.78
2023-05-20T10:58:57.833Z,4.97
2023-05-20T11:02:40.718Z,5.55
2023-05-20T11:06:23.203Z,4.25
2023-05-20T11:08:50.393Z,5.97
2023-05-20T11:11:17.580Z,3.80
2023-05-20T11:13:45.928Z,5.50
2023-05-20T11:16:13.550Z,5.50
2023-05-20T11:18:41.864Z,5.30
2023-05-20T11:21:09.324Z,5.78
2023-05-20T11:23:39.877Z,4.65
2023-05-20T11:26:09.007Z,5.45
2023-05-20T11:28:36.767Z,5.50
2023-05-20T11:31:05.725Z,5.18
2023-05-20T11:33:33.785Z,4.95
2023-05-20T11:36:44.331Z,5.45
2023-05-20T11:39:17.780Z,7.53
2023-05-20T11:41:48.438Z,4.90
2023-05-20T11:44:15.742Z,4.35
2023-05-20T11:46:46.068Z,5.03
2023-05-20T11:49:15.501Z,4.38
2023-05-20T11:51:45.165Z,6.00
2023-05-20T11:54:13.381Z,6.90
2023-05-20T11:56:45.711Z,6.32
2023-05-20T11:59:14.878Z,4.30
2023-05-20T12:01:43.232Z,4.20
2023-05-20T12:04:15.142Z,4.55
2023-05-20T12:06:44.182Z,4.50
2023-05-20T12:09:14.222Z,5.60
2023-05-20T12:11:45.806Z,5.38
2023-05-20T12:14:16.855Z,7.25
2023-05-20T12:17:00.101Z,4.38
2023-05-20T12:19:30.006Z,4.45
2023-05-20T12:21:59.923Z,6.05
2023-05-20T12:24:32.289Z,5.85
2023-05-20T12:27:00.922Z,5.50
2023-05-20T12:29:31.442Z,5.38
2023-05-20T12:31:59.314Z,5.80
2023-05-20T12:34:26.974Z,5.20
2023-05-20T12:36:54.424Z,7.80
2023-05-20T12:39:24.293Z,4.90
2023-05-20T12:41:52.373Z,5.28
2023-05-20T12:44:20.310Z,4.25
2023-05-20T12:46:47.877Z,4.50
2023-05-20T12:49:15.793Z,5.40
2023-05-20T12:51:43.649Z,4.75
2023-05-20T12:54:11.098Z,5.10
2023-05-20T12:56:39.481Z,5.38
2023-05-20T12:59:07.429Z,4.63
2023-05-20T13:01:34.967Z,5.03
2023-05-20T13:04:03.522Z,5.68
2023-05-20T13:06:35.193Z,5.00
2023-05-20T13:09:13.533Z,6.47
2023-05-20T13:11:40.920Z,5.93
2023-05-20T13:14:11.818Z,5.15
2023-05-20T13:16:41.228Z,8.02
2023-05-20T13:19:09.779Z,5.40
2023-05-20T13:21:48.117Z,4.53
2023-05-20T13:24:22.390Z,4.97
2023-05-20T13:26:54.532Z,4.70
2023-05-20T13:29:22.689Z,5.80
2023-05-20T13:31:50.395Z,6.55
2023-05-20T13:34:18.798Z,4.22
2023-05-20T13:36:50.431Z,4.50
2023-05-20T13:39:23.211Z,5.32
2023-05-20T13:41:53.606Z,5.80
2023-05-20T13:44:23.532Z,4.43
2023-05-20T13:47:01.162Z,7.55
2023-05-20T13:49:28.944Z,5.13
2023-05-20T13:52:07.687Z,4.85
2023-05-20T13:54:39.050Z,4.55
2023-05-20T13:57:09.693Z,5.70
2023-05-20T13:59:37.731Z,4.53
2023-05-20T14:02:12.486Z,6.57
2023-05-20T14:04:48.563Z,6.88
2023-05-20T14:07:16.512Z,4.60
2023-05-20T14:09:45.480Z,4.53
2023-05-20T14:12:13.051Z,4.90
2023-05-20T14:14:43.111Z,5.97
2023-05-20T14:17:11.056Z,4.97
2023-05-20T14:19:42.290Z,5.22
2023-05-20T14:22:12.133Z,4.97
2023-05-20T14:24:40.133Z,4.63
2023-05-20T14:27:08.155Z,5.25
2023-05-20T14:29:36.149Z,6.13
2023-05-20T14:32:22.493Z,6.60
2023-05-20T14:34:55.445Z,5.75
2023-05-20T14:37:37.298Z,4.18
2023-05-20T14:40:15.176Z,6.82
2023-05-20T14:42:52.099Z,6.18
2023-05-20T14:45:23.621Z,5.07
2023-05-20T14:47:55.015Z,5.93
2023-05-20T14:50:32.050Z,4.07
2023-05-20T14:52:59.988Z,7.13
2023-05-20T14:55:44.808Z,4.78
2023-05-20T14:58:18.592Z,4.18
2023-05-20T15:00:53.281Z,5.10
2023-05-20T15:03:24.382Z,5.47
2023-05-20T15:06:00.933Z,5.45
2023-05-20T15:08:42.088Z,6.25
2023-05-20T15:11:23.821Z,4.72
2023-05-20T15:14:02.441Z,6.20
2023-05-20T15:16:34.721Z,5.18
2023-05-20T15:19:19.310Z,3.92
2023-05-20T15:21:53.479Z,5.15
2023-05-20T15:24:41.073Z,4.35
2023-05-20T15:27:11.554Z,5.30
2023-05-20T15:29:49.074Z,4.30
2023-05-20T15:32:40.215Z,6.55
2023-05-20T15:35:20.966Z,5.10
2023-05-20T15:37:57.369Z,5.43
2023-05-20T15:40:27.740Z,4.47
2023-05-20T15:42:59.028Z,5.15
2023-05-20T15:45:27.941Z,3.92
2023-05-20T15:48:03.346Z,5.75
2023-05-20T15:50:36.373Z,5.28
2023-05-20T15:53:15.794Z,5.45
2023-05-20T15:55:46.052Z,7.60
2023-05-20T15:58:16.101Z,5.80
2023-05-20T16:00:44.245Z,8.77
2023-05-20T16:03:13.459Z,4.93
2023-05-20T16:05:46.419Z,4.90
2023-05-20T16:08:16.762Z,5.95
2023-05-20T16:10:51.855Z,4.55
2023-05-20T16:13:20.090Z,5.85
2023-05-20T16:16:01.488Z,4.65
2023-05-20T16:18:34.817Z,5.60
2023-05-20T16:21:07.970Z,4.97
2023-05-20T16:23:38.752Z,5.78
2023-05-20T16:26:13.250Z,7.43
2023-05-20T16:28:47.508Z,7.78
2023-05-20T16:31:34.498Z,5.93
2023-05-20T16:34:04.699Z,6.93
2023-05-20T16:36:43.936Z,6.38
2023-05-20T16:39:21.426Z,5.10
2023-05-20T16:41:53.133Z,6.10
2023-05-20T16:44:26.124Z,7.25
2023-05-20T16:46:56.599Z,6.72
2023-05-20T16:49:28.342Z,8.43
2023-05-20T16:51:58.749Z,5.32
2023-05-20T16:54:26.494Z,4.95
2023-05-20T16:57:00.865Z,5.75
2023-05-20T16:59:31.578Z,5.97
2023-05-20T17:01:59.304Z,5.97
2023-05-20T17:04:27.274Z,5.93
2023-05-20T17:07:03.176Z,5.63
2023-05-20T17:09:33.304Z,5.07
2023-05-20T17:12:01.122Z,5.20
2023-05-20T17:14:28.621Z,5.13
2023-05-20T17:16:55.962Z,5.00
2023-05-20T17:19:23.808Z,5.35
2023-05-20T17:21:54.327Z,6.88
2023-05-20T17:24:22.751Z,4.65
2023-05-20T17:26:50.486Z,6.00
2023-05-20T17:29:18.179Z,5.25
2023-05-20T17:31:45.400Z,5.75
2023-05-20T17:34:13.867Z,6.25
2023-05-20T17:36:41.459Z,7.25
2023-05-20T17:39:09.729Z,7.40
2023-05-20T17:41:37.094Z,6.97
2023-05-20T17:44:05.056Z,5.45
2023-05-20T17:46:32.333Z,5.97
2023-05-20T17:48:59.738Z,5.30
2023-05-20T17:51:27.299Z,5.65
2023-05-20T17:53:55.118Z,4.75
2023-05-20T17:56:22.938Z,5.50
2023-05-20T17:58:50.657Z,5.88
2023-05-20T18:01:17.966Z,4.68
2023-05-20T18:03:46.729Z,6.28
2023-05-20T18:06:14.702Z,5.03
2023-05-20T18:08:42.512Z,5.05
2023-05-20T18:11:10.688Z,7.10
2023-05-20T18:13:38.343Z,8.02
2023-05-20T18:16:06.796Z,8.13
2023-05-20T18:18:34.155Z,7.35
2023-05-20T18:21:01.470Z,7.15
2023-05-20T18:23:29.356Z,7.68
2023-05-20T18:25:57.268Z,7.55
2023-05-20T18:28:24.584Z,7.68
2023-05-20T18:30:51.978Z,7.43
2023-05-20T18:33:19.502Z,7.03
2023-05-20T18:35:46.976Z,8.70
2023-05-20T18:38:14.433Z,7.60
2023-05-20T18:40:41.688Z,6.35
2023-05-20T18:43:09.004Z,7.65
2023-05-20T18:45:36.310Z,5.82
2023-05-20T18:48:05.266Z,9.20
2023-05-20T18:50:33.290Z,8.25
2023-05-20T18:53:00.856Z,6.75
2023-05-20T18:55:28.275Z,9.02
2023-05-20T18:57:56.384Z,7.95
2023-05-20T19:00:24.393Z,8.63
2023-05-20T19:02:51.703Z,7.80
2023-05-20T19:05:20.069Z,10.50
2023-05-20T19:07:47.479Z,8.20
2023-05-20T19:10:15.487Z,10.05
2023-05-20T19:12:43.589Z,8.05
2023-05-20T19:15:11.809Z,11.27
2023-05-20T19:17:39.668Z,9.43
2023-05-20T19:20:08.916Z,9.55
2023-05-20T19:22:36.179Z,8.75
2023-05-20T19:25:05.215Z,10.05
2023-05-20T19:27:32.492Z,10.48
2023-05-20T19:29:59.767Z,8.50
2023-05-20T19:32:27.083Z,8.18
2023-05-20T19:34:56.880Z,9.15
2023-05-20T19:37:24.464Z,11.50
2023-05-20T19:39:51.756Z,9.30
2023-05-20T19:42:19.034Z,9.88
2023-05-20T19:44:50.486Z,8.20
2023-05-20T19:47:17.971Z,10.73
2023-05-20T19:49:45.271Z,8.25
2023-05-20T19:52:12.472Z,8.02
2023-05-20T19:54:41.678Z,8.05
2023-05-20T19:57:08.993Z,8.20
2023-05-20T19:59:38.052Z,7.30
2023-05-20T20:02:07.130Z,10.40
2023-05-20T20:04:34.434Z,11.00
2023-05-20T20:07:02.491Z,11.00
2023-05-20T20:09:31.270Z,12.32
2023-05-20T20:11:58.760Z,9.90
2023-05-20T20:14:25.986Z,13.05
2023-05-20T20:16:54.556Z,12.95
2023-05-20T20:19:23.054Z,12.43
2023-05-20T20:21:56.873Z,12.60
2023-05-20T20:24:24.439Z,12.80
2023-05-20T20:26:54.138Z,9.90
2023-05-20T20:29:24.623Z,11.75
2023-05-20T20:31:52.498Z,11.02
2023-05-20T20:34:19.761Z,12.35
2023-05-20T20:36:47.530Z,12.98
2023-05-20T20:39:21.171Z,10.38
2023-05-20T20:41:50.452Z,13.63
2023-05-20T20:44:22.549Z,13.30
2023-05-20T20:46:51.717Z,12.63
2023-05-20T20:49:21.083Z,12.77
2023-05-20T20:51:50.283Z,12.65
2023-05-20T20:54:17.865Z,14.07
2023-05-20T20:56:47.172Z,14.43
2023-05-20T20:59:15.815Z,16.70
2023-05-20T21:01:44.782Z,19.60
2023-05-20T21:04:14.057Z,17.17
2023-05-20T21:06:47.596Z,18.20
2023-05-20T21:09:16.323Z,11.68
2023-05-20T21:11:45.270Z,12.57
2023-05-20T21:14:13.275Z,12.23
2023-05-20T21:16:42.136Z,14.82
2023-05-20T21:19:10.414Z,14.45
2023-05-20T21:22:04.594Z,15.35
2023-05-20T21:24:32.672Z,16.08
2023-05-20T21:27:00.148Z,14.18
2023-05-20T21:29:27.404Z,14.27
2023-05-20T21:31:55.102Z,15.45
2023-05-20T21:34:22.288Z,14.50
2023-05-20T21:36:49.540Z,15.48
2023-05-20T21:39:17.093Z,14.73
2023-05-20T21:41:44.427Z,17.08
2023-05-20T21:44:11.689Z,15.18
2023-05-20T21:46:39.162Z,15.60
2023-05-20T21:49:06.531Z,19.02
2023-05-20T21:51:33.991Z,15.38
2023-05-20T21:54:01.477Z,14.20
2023-05-20T21:56:28.798Z,13.73
2023-05-20T21:58:56.238Z,13.50
2023-05-20T22:01:23.692Z,13.07
2023-05-20T22:03:53.398Z,16.20
2023-05-20T22:06:21.700Z,13.05
2023-05-20T22:08:49.388Z,12.05
2023-05-20T22:11:17.049Z,11.75
2023-05-20T22:13:44.593Z,12.43
2023-05-20T22:16:12.079Z,11.02
2023-05-20T22:18:39.709Z,12.32
2023-05-20T22:21:11.747Z,13.55
2023-05-20T22:23:41.130Z,10.40
2023-05-20T22:26:11.567Z,12.20
2023-05-20T22:28:38.781Z,13.65
2023-05-20T22:31:06.328Z,13.85
2023-05-20T22:33:33.868Z,11.80
2023-05-20T22:36:01.115Z,13.20
2023-05-20T22:38:30.720Z,14.20
2023-05-20T22:40:57.993Z,12.45
2023-05-20T22:43:26.275Z,13.20
2023-05-20T22:45:53.999Z,14.80
2023-05-20T22:48:23.179Z,14.52
2023-05-20T22:50:51.782Z,11.95
2023-05-20T22:53:20.998Z,14.98
2023-05-20T22:55:49.136Z,15.63
2023-05-20T22:58:16.857Z,14.98
2023-05-20T23:00:44.567Z,14.45
2023-05-20T23:03:12.370Z,15.88
2023-05-20T23:05:39.682Z,14.90
2023-05-20T23:08:07.002Z,12.85
2023-05-20T23:10:34.729Z,13.07
2023-05-20T23:13:02.220Z,13.23
2023-05-20T23:15:31.147Z,12.75
2023-05-20T23:19:13.888Z,13.35
2023-05-20T23:21:41.197Z,13.35
2023-05-20T23:25:27.033Z,15.82
2023-05-20T23:27:54.290Z,16.48
2023-05-20T23:30:21.663Z,16.13
2023-05-20T23:34:04.517Z,14.80
2023-05-20T23:36:34.461Z,12.85
2023-05-20T23:40:17.166Z,15.07
2023-05-20T23:42:50.465Z,15.57
2023-05-20T23:46:32.845Z,13.05
2023-05-20T23:50:15.794Z,13.82
2023-05-20T23:52:43.187Z,14.07
2023-05-20T23:55:13.002Z,14.82
2023-05-20T23:58:57.502Z,14.80
